createdAt,value
2018-05-18T00:02:03.204Z,9.45
2018-05-18T00:04:31.566Z,8.57
2018-05-18T00:06:59.172Z,9.30
2018-05-18T00:09:26.769Z,10.68
2018-05-18T00:11:54.384Z,8.85
2018-05-18T00:14:21.967Z,9.88
2018-05-18T00:16:49.552Z,11.55
2018-05-18T00:19:17.164Z,15.53
2018-05-18T00:21:44.744Z,11.47
2018-05-18T00:24:12.353Z,9.68
2018-05-18T00:26:39.944Z,9.05
2018-05-18T00:29:08.320Z,8.88
2018-05-18T00:31:35.907Z,7.87
2018-05-18T00:34:04.286Z,8.50
2018-05-18T00:36:33.381Z,9.43
2018-05-18T00:39:01.004Z,11.30
2018-05-18T00:41:28.591Z,9.33
2018-05-18T00:43:56.196Z,10.53
2018-05-18T00:46:23.777Z,10.15
2018-05-18T00:48:51.379Z,8.77
2018-05-18T00:51:19.729Z,8.88
2018-05-18T00:53:47.344Z,9.63
2018-05-18T00:56:14.919Z,10.10
2018-05-18T00:58:42.536Z,10.40
2018-05-18T01:01:10.132Z,10.32
2018-05-18T01:03:37.733Z,9.48
2018-05-18T01:06:05.304Z,8.52
2018-05-18T01:08:33.004Z,9.73
2018-05-18T01:11:00.577Z,8.63
2018-05-18T01:13:28.197Z,9.23
2018-05-18T01:15:56.612Z,9.50
2018-05-18T01:18:24.980Z,9.60
2018-05-18T01:20:52.558Z,10.80
2018-05-18T01:23:20.908Z,10.23
2018-05-18T01:25:48.516Z,10.50
2018-05-18T01:28:16.860Z,9.60
2018-05-18T01:30:44.455Z,8.93
2018-05-18T01:33:12.028Z,9.52
2018-05-18T01:35:39.624Z,9.98
2018-05-18T01:38:07.964Z,9.98
2018-05-18T01:40:35.563Z,9.95
2018-05-18T01:43:03.139Z,8.93
2018-05-18T01:45:30.993Z,9.75
2018-05-18T01:47:58.567Z,9.05
2018-05-18T01:50:26.321Z,8.82
2018-05-18T01:52:53.899Z,9.27
2018-05-18T01:55:21.507Z,10.45
2018-05-18T01:57:49.269Z,9.75
2018-05-18T02:00:17.022Z,10.45
2018-05-18T02:02:44.798Z,9.52
2018-05-18T02:05:12.575Z,8.40
2018-05-18T02:07:40.273Z,9.20
2018-05-18T02:10:08.049Z,9.27
2018-05-18T02:12:35.907Z,10.10
2018-05-18T02:15:03.789Z,10.43
2018-05-18T02:17:31.593Z,10.93
2018-05-18T02:20:00.871Z,11.50
2018-05-18T02:22:28.648Z,10.00
2018-05-18T02:24:56.422Z,9.90
2018-05-18T02:27:24.202Z,11.40
2018-05-18T02:29:51.978Z,9.48
2018-05-18T02:32:19.657Z,14.05
2018-05-18T02:34:47.301Z,10.68
2018-05-18T02:37:15.099Z,13.27
2018-05-18T02:39:42.797Z,13.23
2018-05-18T02:42:10.576Z,10.50
2018-05-18T02:44:38.248Z,11.75
2018-05-18T02:47:06.103Z,9.45
2018-05-18T02:49:33.883Z,9.88
2018-05-18T02:52:01.576Z,10.55
2018-05-18T02:54:29.330Z,10.95
2018-05-18T02:56:57.026Z,10.52
2018-05-18T02:59:24.777Z,10.25
2018-05-18T03:01:52.476Z,8.75
2018-05-18T03:04:20.148Z,9.63
2018-05-18T03:06:47.924Z,9.65
2018-05-18T03:09:15.598Z,9.50
2018-05-18T03:11:43.274Z,8.43
2018-05-18T03:14:10.928Z,9.77
2018-05-18T03:16:38.700Z,8.68
2018-05-18T03:19:06.374Z,10.25
2018-05-18T03:21:34.069Z,8.82
2018-05-18T03:24:01.825Z,11.00
2018-05-18T03:26:29.600Z,10.55
2018-05-18T03:28:57.377Z,9.63
2018-05-18T03:31:25.253Z,11.23
2018-05-18T03:33:52.928Z,10.18
2018-05-18T03:36:20.602Z,10.95
2018-05-18T03:38:48.305Z,10.07
2018-05-18T03:41:15.952Z,10.77
2018-05-18T03:43:43.622Z,11.55
2018-05-18T03:46:11.399Z,9.83
2018-05-18T03:48:39.202Z,10.52
2018-05-18T03:51:06.977Z,10.30
2018-05-18T03:53:34.831Z,9.63
2018-05-18T03:56:02.610Z,10.35
2018-05-18T03:58:30.409Z,9.32
2018-05-18T04:00:58.905Z,9.68
2018-05-18T04:03:38.532Z,9.70
2018-05-18T04:09:09.006Z,8.88
2018-05-18T04:11:36.782Z,8.85
2018-05-18T04:14:04.560Z,9.57
2018-05-18T04:16:32.335Z,9.43
2018-05-18T04:19:00.185Z,8.25
2018-05-18T04:21:27.788Z,10.23
2018-05-18T04:23:55.560Z,9.90
2018-05-18T04:26:23.234Z,9.48
2018-05-18T04:28:50.928Z,8.98
2018-05-18T04:31:18.560Z,8.77
2018-05-18T04:33:46.359Z,9.20
2018-05-18T04:36:14.057Z,9.88
2018-05-18T04:38:41.734Z,9.60
2018-05-18T04:41:09.403Z,9.93
2018-05-18T04:43:37.265Z,9.77
2018-05-18T04:46:05.039Z,10.07
2018-05-18T04:48:32.812Z,8.98
2018-05-18T04:51:00.548Z,10.57
2018-05-18T04:53:28.263Z,9.15
2018-05-18T04:55:55.961Z,10.10
2018-05-18T04:58:23.632Z,10.68
2018-05-18T05:00:52.203Z,9.43
2018-05-18T05:03:19.844Z,10.82
2018-05-18T05:05:47.658Z,10.02
2018-05-18T05:08:15.439Z,10.52
2018-05-18T05:10:43.133Z,10.20
2018-05-18T05:13:10.810Z,8.55
2018-05-18T05:15:38.588Z,10.82
2018-05-18T05:18:06.257Z,10.05
2018-05-18T05:20:34.112Z,9.85
2018-05-18T05:23:01.987Z,10.48
2018-05-18T05:25:29.868Z,9.53
2018-05-18T05:27:57.513Z,9.02
2018-05-18T05:30:25.291Z,9.95
2018-05-18T05:32:53.806Z,10.85
2018-05-18T05:35:21.485Z,10.60
2018-05-18T05:37:49.258Z,10.77
2018-05-18T05:40:17.073Z,10.88
2018-05-18T05:42:44.934Z,10.25
2018-05-18T05:45:12.631Z,10.27
2018-05-18T05:47:40.280Z,9.43
2018-05-18T05:50:07.957Z,10.52
2018-05-18T05:52:35.710Z,9.88
2018-05-18T05:55:03.488Z,9.70
2018-05-18T05:57:31.263Z,9.85
2018-05-18T05:59:59.040Z,9.00
2018-05-18T06:02:26.819Z,9.68
2018-05-18T06:04:54.590Z,9.13
2018-05-18T06:07:22.371Z,9.47
2018-05-18T06:09:50.005Z,9.73
2018-05-18T06:12:18.594Z,10.13
2018-05-18T06:14:46.516Z,9.40
2018-05-18T06:17:14.395Z,11.32
2018-05-18T06:19:42.034Z,9.60
2018-05-18T06:22:10.664Z,10.65
2018-05-18T06:24:38.439Z,10.52
2018-05-18T06:27:06.216Z,10.50
2018-05-18T06:29:33.915Z,10.52
2018-05-18T06:32:01.698Z,9.57
2018-05-18T06:34:29.445Z,9.50
2018-05-18T06:36:57.219Z,9.15
2018-05-18T06:39:24.915Z,9.52
2018-05-18T06:41:52.693Z,9.95
2018-05-18T06:44:20.340Z,8.98
2018-05-18T06:46:48.177Z,9.60
2018-05-18T06:49:15.927Z,9.40
2018-05-18T06:51:44.415Z,9.68
2018-05-18T06:54:12.191Z,9.55
2018-05-18T06:56:39.941Z,9.47
2018-05-18T06:59:07.743Z,7.53
2018-05-18T07:01:35.408Z,11.05
2018-05-18T07:04:03.172Z,10.73
2018-05-18T07:06:30.860Z,11.70
2018-05-18T07:08:58.720Z,10.38
2018-05-18T07:11:26.494Z,9.30
2018-05-18T07:13:54.272Z,9.00
2018-05-18T07:16:21.970Z,11.02
2018-05-18T07:18:49.928Z,8.95
2018-05-18T07:21:17.629Z,11.80
2018-05-18T07:23:45.401Z,12.33
2018-05-18T07:26:13.152Z,11.07
2018-05-18T07:28:40.929Z,10.93
2018-05-18T07:31:08.576Z,11.30
2018-05-18T07:33:37.201Z,9.20
2018-05-18T07:36:05.024Z,8.55
2018-05-18T07:38:32.751Z,10.50
2018-05-18T07:41:00.454Z,11.30
2018-05-18T07:43:28.308Z,10.02
2018-05-18T07:45:55.984Z,9.15
2018-05-18T07:48:23.678Z,9.10
2018-05-18T07:50:51.426Z,8.50
2018-05-18T07:53:19.124Z,7.43
2018-05-18T07:55:46.880Z,7.87
2018-05-18T07:58:14.654Z,9.18
2018-05-18T08:00:42.361Z,8.75
2018-05-18T08:03:10.024Z,6.72
2018-05-18T08:05:37.783Z,8.32
2018-05-18T08:08:05.428Z,8.18
2018-05-18T08:10:33.852Z,8.17
2018-05-18T08:13:01.623Z,7.75
2018-05-18T08:15:29.405Z,8.23
2018-05-18T08:17:57.107Z,7.37
2018-05-18T08:20:24.950Z,7.15
2018-05-18T08:22:52.726Z,7.35
2018-05-18T08:25:20.420Z,6.95
2018-05-18T08:27:48.185Z,8.20
2018-05-18T08:30:15.956Z,8.70
2018-05-18T08:32:43.731Z,8.05
2018-05-18T08:35:11.537Z,7.25
2018-05-18T08:37:39.178Z,7.80
2018-05-18T08:40:06.954Z,8.25
2018-05-18T08:42:34.596Z,6.30
2018-05-18T08:45:03.121Z,6.00
2018-05-18T08:47:30.910Z,8.55
2018-05-18T08:49:58.675Z,8.00
2018-05-18T08:52:26.485Z,6.40
2018-05-18T08:54:55.147Z,6.78
2018-05-18T08:57:22.924Z,7.30
2018-05-18T08:59:50.700Z,7.65
2018-05-18T09:02:18.476Z,7.25
2018-05-18T09:04:46.150Z,6.75
2018-05-18T09:07:13.851Z,6.50
2018-05-18T09:09:42.284Z,6.50
2018-05-18T09:12:11.133Z,6.65
2018-05-18T09:14:42.550Z,7.25
2018-05-18T09:17:11.678Z,5.97
2018-05-18T09:19:43.051Z,6.32
2018-05-18T09:22:12.153Z,5.70
2018-05-18T09:24:40.939Z,5.75
2018-05-18T09:27:09.860Z,5.15
2018-05-18T09:29:39.137Z,6.05
2018-05-18T09:32:09.042Z,5.35
2018-05-18T09:34:38.827Z,5.07
2018-05-18T09:37:08.618Z,5.65
2018-05-18T09:39:38.102Z,5.40
2018-05-18T09:42:06.671Z,5.22
2018-05-18T09:44:36.149Z,5.37
2018-05-18T09:47:05.082Z,5.30
2018-05-18T09:49:34.731Z,5.20
2018-05-18T09:52:03.592Z,5.30
2018-05-18T09:54:32.524Z,4.33
2018-05-18T09:57:01.684Z,4.60
2018-05-18T09:59:30.379Z,4.00
2018-05-18T10:01:59.687Z,4.03
2018-05-18T10:04:29.076Z,4.30
2018-05-18T10:06:58.061Z,4.18
2018-05-18T10:09:27.970Z,4.15
2018-05-18T10:11:56.765Z,4.07
2018-05-18T10:14:26.962Z,4.12
2018-05-18T10:16:55.376Z,3.37
2018-05-18T10:19:24.074Z,4.05
2018-05-18T10:21:52.344Z,3.17
2018-05-18T10:24:21.202Z,4.22
2018-05-18T10:26:51.050Z,4.22
2018-05-18T10:29:20.112Z,3.65
2018-05-18T10:31:49.008Z,3.20
2018-05-18T10:34:16.880Z,3.78
2018-05-18T10:36:44.656Z,3.17
2018-05-18T10:39:12.433Z,2.70
2018-05-18T10:41:40.209Z,3.83
2018-05-18T10:44:07.849Z,3.72
2018-05-18T10:46:36.376Z,3.33
2018-05-18T10:49:04.054Z,3.50
2018-05-18T10:51:31.831Z,3.60
2018-05-18T10:53:59.464Z,3.85
2018-05-18T10:56:27.994Z,2.40
2018-05-18T10:58:55.693Z,3.15
2018-05-18T11:01:23.468Z,3.22
2018-05-18T11:03:51.219Z,3.45
2018-05-18T11:06:18.995Z,4.37
2018-05-18T11:08:46.772Z,3.00
2018-05-18T11:11:14.470Z,3.53
2018-05-18T11:13:42.140Z,3.20
2018-05-18T11:16:10.103Z,3.62
2018-05-18T11:18:37.877Z,3.28
2018-05-18T11:21:05.576Z,3.20
2018-05-18T11:23:33.253Z,2.50
2018-05-18T11:26:01.029Z,3.65
2018-05-18T11:28:28.705Z,3.70
2018-05-18T11:30:56.552Z,2.85
2018-05-18T11:33:24.348Z,3.50
2018-05-18T11:35:52.033Z,3.78
2018-05-18T11:38:19.705Z,3.85
2018-05-18T11:40:47.356Z,2.85
2018-05-18T11:43:15.127Z,3.37
2018-05-18T11:45:42.904Z,3.08
2018-05-18T11:48:10.607Z,2.73
2018-05-18T11:50:39.104Z,2.33
2018-05-18T11:53:06.948Z,3.67
2018-05-18T11:55:34.781Z,3.00
2018-05-18T11:58:03.240Z,2.90
2018-05-18T12:00:31.810Z,3.65
2018-05-18T12:02:59.597Z,3.30
2018-05-18T12:05:28.080Z,3.22
2018-05-18T12:07:55.856Z,2.85
2018-05-18T12:10:23.553Z,2.90
2018-05-18T12:12:51.307Z,2.53
2018-05-18T12:15:19.083Z,3.10
2018-05-18T12:17:46.859Z,3.35
2018-05-18T12:20:14.590Z,3.25
2018-05-18T12:22:42.264Z,2.53
2018-05-18T12:25:09.953Z,3.83
2018-05-18T12:27:37.735Z,3.87
2018-05-18T12:30:05.504Z,2.95
2018-05-18T12:32:33.180Z,3.25
2018-05-18T12:35:00.853Z,3.43
2018-05-18T12:37:28.751Z,3.42
2018-05-18T12:39:56.471Z,3.10
2018-05-18T12:42:24.183Z,2.85
2018-05-18T12:44:52.040Z,3.00
2018-05-18T12:47:19.711Z,2.80
2018-05-18T12:49:47.410Z,3.37
2018-05-18T12:52:15.061Z,3.10
2018-05-18T12:54:42.757Z,3.10
2018-05-18T12:57:10.393Z,3.50
2018-05-18T12:59:38.105Z,3.55
2018-05-18T13:02:05.753Z,3.62
2018-05-18T13:04:33.449Z,3.62
2018-05-18T13:07:01.081Z,3.75
2018-05-18T13:09:28.796Z,2.80
2018-05-18T13:11:56.472Z,3.20
2018-05-18T13:14:24.328Z,2.75
2018-05-18T13:16:52.033Z,3.08
2018-05-18T13:19:19.881Z,2.40
2018-05-18T13:21:47.534Z,2.57
2018-05-18T13:24:15.247Z,2.87
2018-05-18T13:26:43.208Z,3.37
2018-05-18T13:29:10.884Z,3.60
2018-05-18T13:31:38.544Z,3.20
2018-05-18T13:34:06.261Z,3.47
2018-05-18T13:36:34.111Z,2.50
2018-05-18T13:39:01.805Z,3.05
2018-05-18T13:41:29.559Z,3.00
2018-05-18T13:43:57.339Z,2.35
2018-05-18T13:46:25.012Z,3.08
2018-05-18T13:48:52.894Z,2.85
2018-05-18T13:51:20.663Z,2.92
2018-05-18T13:53:48.343Z,3.03
2018-05-18T13:56:16.032Z,3.57
2018-05-18T13:58:43.787Z,2.83
2018-05-18T14:01:11.763Z,3.00
2018-05-18T14:03:39.405Z,3.40
2018-05-18T14:06:07.928Z,3.40
2018-05-18T14:08:35.624Z,3.20
2018-05-18T14:11:03.625Z,3.10
2018-05-18T14:13:32.102Z,2.70
2018-05-18T14:15:59.963Z,2.30
2018-05-18T14:18:27.808Z,2.28
2018-05-18T14:20:55.560Z,2.80
2018-05-18T14:23:23.386Z,3.13
2018-05-18T14:25:51.020Z,2.95
2018-05-18T14:28:19.456Z,2.33
2018-05-18T14:30:47.144Z,2.42
2018-05-18T14:33:14.900Z,2.80
2018-05-18T14:35:42.573Z,2.85
2018-05-18T14:38:10.274Z,3.28
2018-05-18T14:40:38.844Z,2.90
2018-05-18T14:43:06.634Z,3.00
2018-05-18T14:45:34.496Z,2.87
2018-05-18T14:48:02.598Z,3.15
2018-05-18T14:50:30.271Z,3.00
2018-05-18T14:52:58.127Z,3.47
2018-05-18T14:55:25.801Z,3.40
2018-05-18T14:57:53.578Z,3.50
2018-05-18T15:00:21.381Z,3.03
2018-05-18T15:02:49.441Z,3.30
2018-05-18T15:05:17.420Z,3.53
2018-05-18T15:07:45.193Z,3.12
2018-05-18T15:10:12.827Z,3.20
2018-05-18T15:12:41.364Z,3.90
2018-05-18T15:15:09.136Z,3.70
2018-05-18T15:17:37.017Z,3.37
2018-05-18T15:20:04.804Z,3.50
2018-05-18T15:22:32.870Z,3.10
2018-05-18T15:25:00.569Z,3.12
2018-05-18T15:27:28.247Z,2.90
2018-05-18T15:29:56.337Z,3.60
2018-05-18T15:32:24.075Z,3.40
2018-05-18T15:34:51.853Z,3.27
2018-05-18T15:37:19.722Z,3.12
2018-05-18T15:39:47.510Z,3.20
2018-05-18T15:42:15.284Z,3.03
2018-05-18T15:44:42.957Z,3.30
2018-05-18T15:47:10.601Z,3.33
2018-05-18T15:49:38.413Z,3.20
2018-05-18T15:52:06.186Z,3.28
2018-05-18T15:54:33.949Z,3.20
2018-05-18T15:57:01.711Z,3.25
2018-05-18T15:59:29.483Z,3.60
2018-05-18T16:01:57.258Z,3.20
2018-05-18T16:04:25.236Z,3.50
2018-05-18T16:06:53.835Z,3.55
2018-05-18T16:09:21.614Z,3.70
2018-05-18T16:11:49.310Z,3.25
2018-05-18T16:14:17.161Z,3.30
2018-05-18T16:16:44.792Z,3.73
2018-05-18T16:19:13.331Z,3.80
2018-05-18T16:21:41.025Z,3.40
2018-05-18T16:24:08.886Z,3.87
2018-05-18T16:26:36.576Z,3.60
2018-05-18T16:29:04.252Z,3.75
2018-05-18T16:31:32.110Z,3.42
2018-05-18T16:33:59.783Z,3.30
2018-05-18T16:36:27.584Z,3.33
2018-05-18T16:38:55.260Z,3.62
2018-05-18T16:41:23.011Z,3.62
2018-05-18T16:43:50.716Z,3.97
2018-05-18T16:46:18.489Z,3.40
2018-05-18T16:48:46.236Z,3.20
2018-05-18T16:51:14.013Z,3.92
2018-05-18T16:53:42.927Z,3.70
2018-05-18T16:56:11.001Z,3.60
2018-05-18T16:58:39.910Z,3.42
2018-05-18T17:01:08.912Z,3.65
2018-05-18T17:03:37.197Z,3.12
2018-05-18T17:06:04.992Z,3.50
2018-05-18T17:08:32.689Z,3.45
2018-05-18T17:11:00.610Z,3.70
2018-05-18T17:13:28.433Z,3.80
2018-05-18T17:15:56.187Z,3.45
2018-05-18T17:18:23.877Z,3.47
2018-05-18T17:20:51.561Z,3.57
2018-05-18T17:23:19.225Z,3.42
2018-05-18T17:25:47.045Z,3.50
2018-05-18T17:28:16.396Z,3.62
2018-05-18T17:30:44.029Z,3.77
2018-05-18T17:33:12.564Z,4.00
2018-05-18T17:35:40.236Z,3.53
2018-05-18T17:38:08.049Z,3.65
2018-05-18T17:40:35.705Z,3.47
2018-05-18T17:43:03.372Z,3.58
2018-05-18T17:45:31.136Z,3.70
2018-05-18T17:47:58.833Z,4.03
2018-05-18T17:50:26.589Z,3.70
2018-05-18T17:52:54.363Z,3.75
2018-05-18T17:55:22.140Z,3.67
2018-05-18T17:57:49.820Z,3.57
2018-05-18T18:00:17.592Z,3.50
2018-05-18T18:02:45.372Z,3.90
2018-05-18T18:05:13.045Z,3.58
2018-05-18T18:07:40.823Z,3.33
2018-05-18T18:10:08.705Z,3.80
2018-05-18T18:12:36.480Z,3.85
2018-05-18T18:15:04.272Z,3.62
2018-05-18T18:17:31.915Z,3.78
2018-05-18T18:19:59.593Z,3.60
2018-05-18T18:22:27.339Z,3.62
2018-05-18T18:24:55.973Z,3.67
2018-05-18T18:27:23.755Z,3.12
2018-05-18T18:29:51.552Z,4.25
2018-05-18T18:32:19.224Z,3.70
2018-05-18T18:34:47.080Z,4.05
2018-05-18T18:37:14.725Z,4.10
2018-05-18T18:39:43.380Z,3.90
2018-05-18T18:42:11.126Z,3.83
2018-05-18T18:44:38.852Z,3.60
2018-05-18T18:47:07.333Z,3.65
2018-05-18T18:49:35.017Z,3.50
2018-05-18T18:52:02.745Z,3.30
2018-05-18T18:54:31.141Z,3.55
2018-05-18T18:56:58.805Z,3.45
2018-05-18T18:59:26.568Z,3.78
2018-05-18T19:01:54.279Z,3.58
2018-05-18T19:04:22.038Z,3.65
2018-05-18T19:06:49.810Z,3.70
2018-05-18T19:09:17.457Z,3.83
2018-05-18T19:11:45.263Z,3.78
2018-05-18T19:14:13.069Z,4.15
2018-05-18T19:16:40.919Z,4.22
2018-05-18T19:19:08.693Z,4.47
2018-05-18T19:21:36.365Z,4.10
2018-05-18T19:24:04.061Z,4.78
2018-05-18T19:26:31.729Z,4.25
2018-05-18T19:28:59.489Z,4.25
2018-05-18T19:31:27.187Z,5.22
2018-05-18T19:33:54.949Z,6.00
2018-05-18T19:36:22.718Z,5.60
2018-05-18T19:38:50.380Z,5.28
2018-05-18T19:41:18.193Z,5.53
2018-05-18T19:43:46.644Z,5.53
2018-05-18T19:46:14.469Z,5.10
2018-05-18T19:48:42.212Z,5.33
2018-05-18T19:51:10.193Z,5.15
2018-05-18T19:53:37.870Z,5.50
2018-05-18T19:56:05.561Z,5.30
2018-05-18T19:58:33.236Z,5.32
2018-05-18T20:01:00.869Z,4.62
2018-05-18T20:03:28.616Z,4.90
2018-05-18T20:05:56.337Z,5.57
2018-05-18T20:08:24.009Z,5.40
2018-05-18T20:10:51.686Z,4.62
2018-05-18T20:13:19.485Z,5.05
2018-05-18T20:15:47.244Z,5.50
2018-05-18T20:18:15.038Z,4.82
2018-05-18T20:20:42.791Z,5.35
2018-05-18T20:23:10.572Z,5.78
2018-05-18T20:25:38.454Z,5.25
2018-05-18T20:28:06.141Z,5.65
2018-05-18T20:30:33.795Z,5.45
2018-05-18T20:33:01.493Z,5.83
2018-05-18T20:35:29.174Z,6.37
2018-05-18T20:37:57.815Z,5.65
2018-05-18T20:40:25.532Z,6.18
2018-05-18T20:42:53.394Z,5.20
2018-05-18T20:45:21.046Z,5.75
2018-05-18T20:47:48.843Z,5.97
2018-05-18T20:50:16.632Z,5.43
2018-05-18T20:52:44.404Z,6.57
2018-05-18T20:55:12.110Z,6.07
2018-05-18T20:57:39.754Z,6.05
2018-05-18T21:00:07.626Z,5.85
2018-05-18T21:02:35.252Z,5.50
2018-05-18T21:05:03.786Z,6.82
2018-05-18T21:07:31.491Z,6.12
2018-05-18T21:09:59.339Z,5.85
2018-05-18T21:12:27.037Z,6.20
2018-05-18T21:14:54.891Z,6.40
2018-05-18T21:17:22.669Z,5.82
2018-05-18T21:19:50.754Z,6.22
2018-05-18T21:22:18.634Z,6.43
2018-05-18T21:24:46.406Z,6.70
2018-05-18T21:27:14.217Z,7.80
2018-05-18T21:29:41.993Z,7.10
2018-05-18T21:32:09.658Z,7.18
2018-05-18T21:34:37.443Z,6.22
2018-05-18T21:37:05.084Z,6.22
2018-05-18T21:39:32.782Z,6.50
2018-05-18T21:42:00.457Z,6.80
2018-05-18T21:44:28.308Z,6.63
2018-05-18T21:46:55.948Z,6.43
2018-05-18T21:49:24.475Z,6.43
2018-05-18T21:51:52.252Z,7.50
2018-05-18T21:54:20.034Z,7.17
2018-05-18T21:56:47.839Z,7.13
2018-05-18T21:59:15.590Z,6.70
2018-05-18T22:01:43.468Z,7.60
2018-05-18T22:04:11.113Z,7.12
2018-05-18T22:06:38.934Z,6.87
2018-05-18T22:09:06.898Z,8.02
2018-05-18T22:11:34.595Z,6.95
2018-05-18T22:14:02.277Z,8.05
2018-05-18T22:16:30.065Z,8.10
2018-05-18T22:18:57.798Z,6.80
2018-05-18T22:21:25.468Z,6.90
2018-05-18T22:23:53.248Z,6.80
2018-05-18T22:26:20.936Z,6.85
2018-05-18T22:28:48.701Z,8.73
2018-05-18T22:31:16.474Z,6.68
2018-05-18T22:33:44.177Z,7.28
2018-05-18T22:36:11.954Z,7.90
2018-05-18T22:38:41.156Z,7.70
2018-05-18T22:41:08.913Z,6.90
2018-05-18T22:43:36.608Z,8.13
2018-05-18T22:46:04.379Z,7.15
2018-05-18T22:48:32.136Z,7.80
2018-05-18T22:50:59.766Z,7.18
2018-05-18T22:53:28.306Z,7.70
2018-05-18T22:55:55.978Z,6.93
2018-05-18T22:58:23.677Z,6.75
2018-05-18T23:00:51.348Z,6.97
2018-05-18T23:03:19.008Z,7.23
2018-05-18T23:05:46.637Z,7.57
2018-05-18T23:08:15.167Z,7.18
2018-05-18T23:10:42.795Z,6.68
2018-05-18T23:13:11.254Z,7.78
2018-05-18T23:15:39.008Z,7.90
2018-05-18T23:18:06.712Z,7.25
2018-05-18T23:20:34.364Z,6.65
2018-05-18T23:23:02.050Z,8.13
2018-05-18T23:25:29.688Z,6.90
2018-05-18T23:27:57.389Z,7.37
2018-05-18T23:30:25.152Z,7.93
2018-05-18T23:32:52.833Z,7.53
2018-05-18T23:35:20.521Z,7.40
2018-05-18T23:37:48.305Z,8.02
2018-05-18T23:40:15.964Z,8.48
2018-05-18T23:42:43.932Z,7.10
2018-05-18T23:45:11.587Z,7.25
2018-05-18T23:47:39.382Z,8.95
2018-05-18T23:50:07.160Z,8.00
2018-05-18T23:52:34.932Z,7.95
2018-05-18T23:55:02.631Z,7.97
2018-05-18T23:57:30.382Z,7.68
2018-05-18T23:59:58.123Z,8.25
